Time;durP1;ratioP1;P1;durP2;ratioP2;P2;SDS_P1;SDS_P2;PMS_P1;PMS_P2;Temp;Humidity;BMP_temperature;BMP_pressure;BME280_temperature;BME280_humidity;BME280_pressure;Samples;Min_cycle;Max_cycle;Signal;HPM_P1;HPM_P2
2022/05/28 00:00:22;;;;;;;6.28;2.88;;;;;;;9.93;100.00;99345.50;5014026;28;20041;-78
2022/05/28 00:02:48;;;;;;;5.35;2.85;;;;;;;9.98;100.00;99350.47;5013557;28;20100;-78
2022/05/28 00:05:14;;;;;;;5.03;2.88;;;;;;;9.95;100.00;99333.28;5014037;28;20029;-78
2022/05/28 00:07:40;;;;;;;5.75;2.92;;;;;;;10.03;100.00;99345.03;4996120;28;20040;-79
2022/05/28 00:10:09;;;;;;;4.80;3.00;;;;;;;10.03;100.00;99338.09;5013829;28;20033;-79
2022/05/28 00:12:34;;;;;;;5.82;2.97;;;;;;;10.13;100.00;99343.69;5013497;28;20109;-78
2022/05/28 00:14:59;;;;;;;5.47;3.30;;;;;;;10.13;100.00;99335.88;5013616;28;20105;-79
2022/05/28 00:17:25;;;;;;;8.65;3.42;;;;;;;10.13;100.00;99328.06;5013796;28;20026;-79
2022/05/28 00:19:51;;;;;;;7.72;2.95;;;;;;;10.17;100.00;99337.41;5013421;28;20026;-78
2022/05/28 00:22:17;;;;;;;5.47;2.70;;;;;;;10.08;100.00;99319.66;5013685;28;20049;-78
2022/05/28 00:24:42;;;;;;;9.68;3.55;;;;;;;10.05;100.00;99331.03;4995689;28;20026;-79
2022/05/28 00:27:08;;;;;;;7.97;3.13;;;;;;;10.02;100.00;99333.78;5013479;28;20080;-79
2022/05/28 00:29:34;;;;;;;10.80;3.08;;;;;;;9.98;100.00;99330.50;5013184;28;20112;-79
2022/05/28 00:31:59;;;;;;;4.13;2.50;;;;;;;9.96;100.00;99328.91;5013138;28;20625;-79
2022/05/28 00:34:26;;;;;;;5.72;3.08;;;;;;;9.93;100.00;99337.69;4995525;28;20057;-78
2022/05/28 00:36:51;;;;;;;7.07;2.75;;;;;;;9.95;100.00;99329.81;5013087;28;20029;-78
2022/05/28 00:39:16;;;;;;;5.00;3.03;;;;;;;9.94;100.00;99329.00;5013129;28;20030;-79
2022/05/28 00:41:42;;;;;;;6.25;2.70;;;;;;;9.92;100.00;99323.00;5012930;28;20053;-78
2022/05/28 00:44:08;;;;;;;4.45;2.45;;;;;;;9.97;100.00;99323.63;5011810;28;20065;-79
2022/05/28 00:46:34;;;;;;;6.57;2.33;;;;;;;10.01;100.00;99329.50;4970963;28;20117;-78
2022/05/28 00:49:04;;;;;;;13.45;3.50;;;;;;;10.02;100.00;99317.34;4971557;28;20470;-79
2022/05/28 00:51:33;;;;;;;6.88;2.92;;;;;;;9.97;100.00;99307.16;4971653;28;20524;-79
2022/05/28 00:54:04;;;;;;;8.38;2.92;;;;;;;9.94;100.00;99305.56;4971564;28;20034;-79
2022/05/28 00:56:29;;;;;;;6.95;2.97;;;;;;;9.99;100.00;99303.59;4971223;28;20045;-78
2022/05/28 00:58:55;;;;;;;4.55;2.85;;;;;;;9.92;100.00;99297.00;4954996;28;20027;-79
2022/05/28 01:01:25;;;;;;;6.70;3.00;;;;;;;10.03;100.00;99311.22;4971426;28;20042;-79
2022/05/28 01:03:58;;;;;;;6.47;2.90;;;;;;;9.95;100.00;99296.84;4971045;28;20027;-79
2022/05/28 01:06:34;;;;;;;6.80;3.30;;;;;;;9.92;100.00;99298.75;4971488;28;20042;-79
2022/05/28 01:09:07;;;;;;;6.97;3.00;;;;;;;9.93;100.00;99313.44;4971420;28;20031;-79
2022/05/28 01:11:39;;;;;;;7.47;3.53;;;;;;;9.85;100.00;99313.81;4954915;28;20043;-78
2022/05/28 01:14:51;;;;;;;7.47;3.00;;;;;;;9.81;100.00;99321.84;4971176;28;20064;-78
2022/05/28 01:17:27;;;;;;;6.50;3.13;;;;;;;9.74;100.00;99319.53;4921070;29;20054;-78
2022/05/28 01:19:55;;;;;;;6.80;3.25;;;;;;;9.74;100.00;99310.91;4932343;29;20120;-78
2022/05/28 01:22:43;;;;;;;6.30;2.88;;;;;;;9.72;100.00;99320.53;4932428;29;20536;-78
2022/05/28 01:25:23;;;;;;;5.53;3.38;;;;;;;9.73;100.00;99312.66;4932649;29;20039;-78
2022/05/28 01:27:54;;;;;;;8.07;3.38;;;;;;;9.74;100.00;99314.34;4932292;29;20044;-78
2022/05/28 01:30:19;;;;;;;;;;;;;;;9.74;100.00;99309.16;4932925;29;20036;-78
2022/05/28 01:32:49;;;;;;;8.40;3.15;;;;;;;9.73;100.00;99299.66;4932236;29;19911;-79
2022/05/28 01:35:18;;;;;;;4.43;2.70;;;;;;;9.72;100.00;99289.31;4916508;29;20119;-79
2022/05/28 01:37:45;;;;;;;7.10;3.05;;;;;;;9.71;100.00;99292.84;4932180;29;20031;-78
2022/05/28 01:40:11;;;;;;;6.70;3.17;;;;;;;9.59;100.00;99278.69;4932307;29;20047;-78
2022/05/28 01:42:43;;;;;;;6.60;2.78;;;;;;;9.60;100.00;99279.50;4932148;29;20042;-78
2022/05/28 01:45:10;;;;;;;7.38;2.90;;;;;;;9.56;100.00;99285.78;4932327;29;20082;-79
2022/05/28 01:47:36;;;;;;;7.88;2.83;;;;;;;9.49;100.00;99285.25;4931598;29;20079;-79
2022/05/28 01:50:04;;;;;;;6.57;3.35;;;;;;;9.33;100.00;99268.69;4932371;29;20043;-79
2022/05/28 01:52:32;;;;;;;5.60;2.60;;;;;;;9.33;100.00;99281.69;4932159;29;20047;-78
2022/05/28 01:54:59;;;;;;;6.85;3.25;;;;;;;9.28;100.00;99284.50;5010627;28;20669;-78
2022/05/28 01:57:24;;;;;;;5.38;2.83;;;;;;;9.23;100.00;99281.28;5011916;28;20054;-78
2022/05/28 01:59:51;;;;;;;5.80;2.67;;;;;;;9.21;100.00;99270.09;5011635;28;20383;-78
2022/05/28 02:02:17;;;;;;;6.57;2.90;;;;;;;9.28;100.00;99281.06;4994442;28;20025;-78
2022/05/28 02:04:45;;;;;;;5.47;3.20;;;;;;;9.25;100.00;99279.44;5011754;28;20030;-79
2022/05/28 02:07:11;;;;;;;7.65;3.38;;;;;;;9.27;100.00;99280.22;5011901;28;20053;-78
2022/05/28 02:09:54;;;;;;;8.20;2.88;;;;;;;9.31;100.00;99280.91;5012179;28;20410;-79
2022/05/28 02:12:31;;;;;;;6.13;2.88;;;;;;;9.41;100.00;99276.97;5012019;28;20033;-78
2022/05/28 02:15:21;;;;;;;5.60;3.08;;;;;;;9.36;100.00;99285.00;4994132;28;20037;-78
2022/05/28 02:17:52;;;;;;;4.87;2.70;;;;;;;9.29;100.00;99278.38;5011837;28;20026;-78
2022/05/28 02:20:23;;;;;;;8.18;2.92;;;;;;;9.24;100.00;99267.38;5011692;28;20282;-78
2022/05/28 02:22:49;;;;;;;7.22;2.95;;;;;;;9.18;100.00;99268.47;5011766;28;20054;-78
2022/05/28 02:25:29;;;;;;;8.45;2.95;;;;;;;9.06;100.00;99261.28;5011786;28;20476;-79
2022/05/28 02:27:56;;;;;;;8.45;3.00;;;;;;;9.10;100.00;99275.81;4993943;28;20088;-78
2022/05/28 02:30:22;;;;;;;8.95;2.72;;;;;;;9.14;100.00;99258.31;5011706;28;20026;-78
2022/05/28 02:32:47;;;;;;;6.68;3.10;;;;;;;9.16;100.00;99262.53;5011360;28;20032;-78
2022/05/28 02:35:13;;;;;;;7.35;3.20;;;;;;;9.24;100.00;99255.22;5011817;28;20021;-78
2022/05/28 02:37:39;;;;;;;5.82;3.17;;;;;;;9.31;100.00;99267.91;4994168;28;20029;-79
2022/05/28 02:40:05;;;;;;;6.53;2.95;;;;;;;9.26;100.00;99249.94;5011432;28;20030;-78
2022/05/28 02:42:32;;;;;;;9.13;3.67;;;;;;;9.30;100.00;99248.88;5010355;28;20391;-78
2022/05/28 02:44:58;;;;;;;8.30;3.28;;;;;;;9.36;100.00;99251.19;4993685;28;20022;-78
2022/05/28 02:47:23;;;;;;;6.28;2.40;;;;;;;9.42;100.00;99256.09;5011385;28;20490;-78
2022/05/28 02:49:49;;;;;;;8.07;3.22;;;;;;;9.35;100.00;99239.09;5011486;28;20033;-78
2022/05/28 02:52:14;;;;;;;7.57;2.50;;;;;;;9.40;100.00;99244.09;5010357;28;20164;-78
2022/05/28 02:54:40;;;;;;;8.45;3.03;;;;;;;9.44;100.00;99250.84;5011612;28;20030;-78
2022/05/28 02:57:06;;;;;;;6.80;2.75;;;;;;;9.42;100.00;99258.69;5011311;28;20034;-79
2022/05/28 02:59:31;;;;;;;6.22;2.95;;;;;;;9.38;100.00;99257.16;5014849;28;20541;-78
2022/05/28 03:01:57;;;;;;;7.40;2.88;;;;;;;9.32;100.00;99257.47;5014741;28;20053;-78
2022/05/28 03:04:22;;;;;;;4.93;2.63;;;;;;;9.24;100.00;99259.56;5015247;28;20132;-78
2022/05/28 03:06:48;;;;;;;8.27;3.15;;;;;;;9.17;100.00;99261.59;5014648;28;20018;-78
2022/05/28 03:09:15;;;;;;;9.57;3.22;;;;;;;9.11;100.00;99266.28;4997441;28;20036;-78
2022/05/28 03:11:40;;;;;;;10.65;3.03;;;;;;;8.98;100.00;99240.88;5014947;28;20034;-78
2022/05/28 03:14:06;;;;;;;4.85;2.65;;;;;;;9.02;100.00;99259.75;5014612;28;20463;-78
2022/05/28 03:16:31;;;;;;;6.78;2.90;;;;;;;8.96;100.00;99253.06;5014758;28;20079;-78
2022/05/28 03:18:57;;;;;;;7.65;3.08;;;;;;;8.96;100.00;99267.81;4992249;28;20150;-78
2022/05/28 03:21:22;;;;;;;8.25;2.72;;;;;;;8.90;100.00;99258.56;4992688;28;20129;-79
2022/05/28 03:23:48;;;;;;;8.80;3.08;;;;;;;8.90;100.00;99258.56;4992634;28;20050;-78
2022/05/28 03:26:14;;;;;;;7.55;2.83;;;;;;;8.86;100.00;99253.56;4992614;28;20031;-79
2022/05/28 03:28:40;;;;;;;8.45;2.80;;;;;;;8.81;100.00;99246.00;4992354;28;20046;-78
2022/05/28 03:31:05;;;;;;;9.05;3.30;;;;;;;8.87;100.00;99250.91;4992109;28;20479;-78
2022/05/28 03:33:31;;;;;;;9.43;2.60;;;;;;;8.79;100.00;99234.81;4992688;28;20038;-79
2022/05/28 03:35:57;;;;;;;5.93;2.63;;;;;;;8.90;100.00;99255.97;4992224;28;20023;-78
2022/05/28 03:38:23;;;;;;;5.95;2.65;;;;;;;8.87;100.00;99245.69;4992321;28;20480;-78
2022/05/28 03:40:48;;;;;;;5.32;2.40;;;;;;;8.96;100.00;99249.63;4992144;28;20057;-79
2022/05/28 03:43:14;;;;;;;9.88;2.70;;;;;;;9.02;100.00;99259.75;4992348;28;20177;-78
2022/05/28 03:45:39;;;;;;;5.07;2.35;;;;;;;9.07;100.00;99256.94;4992011;28;20054;-78
2022/05/28 03:48:07;;;;;;;4.85;2.70;;;;;;;9.07;100.00;99264.72;4991996;28;20041;-78
2022/05/28 03:50:33;;;;;;;7.05;2.65;;;;;;;9.12;100.00;99258.41;5008426;28;20094;-78
2022/05/28 03:52:58;;;;;;;7.97;2.50;;;;;;;9.32;100.00;99254.88;5013890;28;20033;-78
2022/05/28 03:55:23;;;;;;;7.45;2.70;;;;;;;9.53;100.00;99268.59;5014058;28;20034;-78
2022/05/28 03:57:49;;;;;;;6.88;2.40;;;;;;;9.71;100.00;99264.25;5013825;28;20030;-78
2022/05/28 04:00:15;;;;;;;5.22;2.10;;;;;;;9.85;100.00;99259.19;5013807;28;20038;-78
2022/05/28 04:02:40;;;;;;;6.18;2.80;;;;;;;10.09;100.00;99272.72;5014058;28;20037;-78
2022/05/28 04:05:06;;;;;;;5.95;2.33;;;;;;;10.24;100.00;99258.09;4972073;28;20043;-78
2022/05/28 04:07:32;;;;;;;3.70;2.00;;;;;;;10.67;100.00;99266.31;4956051;28;20034;-78
2022/05/28 04:09:57;;;;;;;6.63;2.45;;;;;;;11.29;99.63;99277.66;4971472;28;20100;-79
2022/05/28 04:12:22;;;;;;;3.67;2.10;;;;;;;12.14;95.46;99258.94;4956184;28;20374;-79
2022/05/28 04:14:49;;;;;;;8.45;2.53;;;;;;;13.50;89.40;99261.88;4971995;28;20496;-78
2022/05/28 04:17:14;;;;;;;3.92;2.25;;;;;;;15.39;81.06;99261.13;4972225;28;20109;-79
2022/05/28 04:19:40;;;;;;;9.43;2.45;;;;;;;15.12;76.70;99256.91;4972078;28;20586;-79
2022/05/28 04:22:05;;;;;;;3.42;1.90;;;;;;;14.96;77.32;99254.56;4971998;28;20047;-79
2022/05/28 04:24:31;;;;;;;5.20;2.03;;;;;;;15.21;76.89;99252.78;4972022;28;20101;-79
2022/05/28 04:26:57;;;;;;;5.10;2.10;;;;;;;15.13;77.08;99257.78;4955557;28;20038;-79
2022/05/28 04:29:22;;;;;;;7.50;2.70;;;;;;;15.26;77.53;99252.47;4971917;28;20035;-79
2022/05/28 04:31:48;;;;;;;4.30;1.70;;;;;;;15.44;76.64;99238.00;4971745;28;20070;-79
2022/05/28 04:34:13;;;;;;;5.70;2.13;;;;;;;15.81;75.57;99240.56;4971953;28;20042;-79
2022/05/28 04:36:39;;;;;;;9.45;2.40;;;;;;;16.49;72.79;99228.38;5002247;28;20099;-79
2022/05/28 04:39:04;;;;;;;4.38;2.10;;;;;;;17.46;67.82;99238.19;5011675;28;20041;-79
2022/05/28 04:41:29;;;;;;;4.47;2.13;;;;;;;16.93;67.94;99249.41;5011878;28;20391;-79
2022/05/28 04:43:55;;;;;;;4.93;1.92;;;;;;;16.17;70.03;99227.28;5012908;28;20128;-79
2022/05/28 04:46:20;;;;;;;4.15;2.20;;;;;;;16.43;70.32;99238.44;5012944;28;20045;-79
2022/05/28 04:48:46;;;;;;;4.60;2.28;;;;;;;16.01;70.11;99239.06;4995474;28;20447;-79
2022/05/28 04:51:12;;;;;;;3.63;2.13;;;;;;;15.36;71.80;99248.22;5012933;28;20032;-78
2022/05/28 04:53:38;;;;;;;5.40;2.17;;;;;;;14.81;73.25;99246.94;5013120;28;20026;-78
2022/05/28 04:56:04;;;;;;;7.30;2.40;;;;;;;14.55;74.60;99239.09;5012819;28;20105;-79
2022/05/28 04:58:29;;;;;;;4.68;2.28;;;;;;;14.37;75.50;99251.66;4995293;28;20033;-79
2022/05/28 05:00:55;;;;;;;5.18;2.20;;;;;;;14.34;76.35;99261.50;5012517;28;20089;-79
2022/05/28 05:03:21;;;;;;;6.05;2.30;;;;;;;15.93;73.39;99250.16;5012992;28;20025;-78
2022/05/28 05:05:47;;;;;;;5.32;2.55;;;;;;;18.55;66.19;99251.00;4995258;28;20068;-79
2022/05/28 05:08:13;;;;;;;5.45;2.38;;;;;;;19.39;60.25;99259.50;5012583;28;20399;-79
2022/05/28 05:10:38;;;;;;;6.30;2.17;;;;;;;18.25;61.90;99249.19;5012781;28;20391;-79
2022/05/28 05:13:05;;;;;;;6.45;2.33;;;;;;;17.42;63.29;99240.22;4994778;28;20076;-79
2022/05/28 05:15:30;;;;;;;4.35;1.92;;;;;;;17.27;65.62;99241.47;5012467;28;20038;-79
2022/05/28 05:17:56;;;;;;;5.85;1.98;;;;;;;17.27;66.09;99249.34;5012453;28;20455;-80
2022/05/28 05:20:21;;;;;;;6.47;1.90;;;;;;;17.46;65.36;99249.53;5012357;28;20463;-80
2022/05/28 05:22:47;;;;;;;5.25;1.98;;;;;;;17.86;64.42;99242.81;4994186;28;20395;-80
2022/05/28 05:25:13;;;;;;;4.75;2.15;;;;;;;18.49;62.10;99255.97;4994466;28;20443;-79
2022/05/28 05:27:39;;;;;;;3.15;1.60;;;;;;;20.14;58.09;99231.53;5012374;28;20355;-79
2022/05/28 05:30:06;;;;;;;4.43;2.08;;;;;;;22.42;50.87;99232.31;4970519;28;20035;-80
2022/05/28 05:32:32;;;;;;;4.13;1.73;;;;;;;22.88;45.17;99239.00;4970641;28;20073;-79
2022/05/28 05:34:57;;;;;;;3.75;1.95;;;;;;;21.94;45.97;99233.59;4970602;28;20508;-79
2022/05/28 05:37:23;;;;;;;3.72;1.98;;;;;;;21.01;47.98;99227.72;4932233;29;20044;-78
2022/05/28 05:39:48;;;;;;;10.65;2.42;;;;;;;20.80;48.63;99237.72;4932286;29;20051;-79
2022/05/28 05:42:14;;;;;;;3.00;1.63;;;;;;;20.69;49.06;99233.47;4932009;29;20548;-79
2022/05/28 05:44:39;;;;;;;3.08;1.65;;;;;;;20.49;48.78;99223.94;4932269;29;20050;-78
2022/05/28 05:47:06;;;;;;;4.57;1.60;;;;;;;20.18;48.68;99230.28;4931894;29;20106;-79
2022/05/28 05:49:32;;;;;;;3.65;1.63;;;;;;;19.75;50.25;99229.91;4916176;29;20039;-79
2022/05/28 05:51:58;;;;;;;2.75;1.73;;;;;;;19.47;51.24;99224.47;4916028;29;20092;-79
2022/05/28 05:54:24;;;;;;;6.38;2.30;;;;;;;18.84;51.16;99237.97;4916230;29;20028;-78
2022/05/28 05:56:50;;;;;;;5.00;2.10;;;;;;;18.03;52.62;99239.59;4932013;29;20048;-79
2022/05/28 05:59:16;;;;;;;3.30;1.73;;;;;;;17.39;55.05;99247.53;4915885;29;20139;-79
2022/05/28 06:01:41;;;;;;;5.32;1.80;;;;;;;16.88;56.93;99224.44;4944920;28;20508;-79
2022/05/28 06:04:07;;;;;;;3.90;1.90;;;;;;;17.07;55.20;99231.72;4970569;28;20043;-79
2022/05/28 06:06:33;;;;;;;6.05;1.75;;;;;;;16.73;55.88;99225.66;4970506;28;20089;-79
2022/05/28 06:08:58;;;;;;;6.78;1.92;;;;;;;16.40;57.26;99232.56;5001067;28;20054;-78
2022/05/28 06:11:24;;;;;;;5.32;1.80;;;;;;;16.03;58.05;99235.38;5012290;28;20037;-79
2022/05/28 06:13:49;;;;;;;6.30;2.22;;;;;;;15.71;58.15;99219.41;4994199;28;20589;-78
2022/05/28 06:16:14;;;;;;;6.75;2.00;;;;;;;15.47;58.53;99232.53;4994095;28;20526;-78
2022/05/28 06:18:40;;;;;;;7.32;2.13;;;;;;;15.18;58.50;99240.75;5010374;28;20032;-78
2022/05/28 06:21:05;;;;;;;2.08;1.42;;;;;;;15.34;60.30;99237.84;5011625;28;20026;-78
2022/05/28 06:23:31;;;;;;;2.88;1.55;;;;;;;15.41;60.20;99230.34;5011783;28;20026;-78
2022/05/28 06:25:57;;;;;;;4.05;1.95;;;;;;;15.31;61.21;99231.97;5011394;28;20386;-78
2022/05/28 06:28:22;;;;;;;7.68;2.10;;;;;;;15.81;61.16;99198.56;5011846;28;20030;-78
2022/05/28 06:30:50;;;;;;;2.97;1.30;;;;;;;16.05;59.16;99211.59;5012118;28;20034;-79
2022/05/28 06:33:17;;;;;;;5.15;2.40;;;;;;;16.06;59.23;99208.88;5013223;28;20179;-78
2022/05/28 06:35:43;;;;;;;4.32;1.77;;;;;;;16.02;59.85;99217.94;5028965;28;20470;-78
2022/05/28 06:38:08;;;;;;;3.55;1.95;;;;;;;15.69;61.06;99227.41;5035019;28;20120;-78
2022/05/28 06:40:35;;;;;;;4.82;1.77;;;;;;;16.27;61.22;99219.53;5035101;28;20128;-78
2022/05/28 06:43:01;;;;;;;4.97;1.80;;;;;;;16.60;59.93;99226.59;5034903;28;20032;-78
2022/05/28 06:45:27;;;;;;;3.88;1.88;;;;;;;18.15;56.51;99225.41;4992995;28;20499;-78
2022/05/28 06:47:52;;;;;;;8.27;2.17;;;;;;;19.32;51.39;99224.03;4993356;28;20039;-78
2022/05/28 06:53:08;;;;;;;6.13;2.20;;;;;;;21.16;45.87;99215.66;4976304;28;20534;-78
2022/05/28 06:55:35;;;;;;;5.88;2.22;;;;;;;21.82;45.71;99203.84;4957438;28;20045;-79
2022/05/28 06:58:01;;;;;;;5.50;1.77;;;;;;;22.41;42.02;99210.22;4973465;28;20047;-79
2022/05/28 07:00:26;;;;;;;3.75;1.85;;;;;;;21.26;43.58;99209.44;4973675;28;20046;-78
2022/05/28 07:02:52;;;;;;;5.50;1.90;;;;;;;23.13;41.53;99202.75;4973653;28;20041;-78
2022/05/28 07:05:17;;;;;;;2.95;1.75;;;;;;;22.56;40.28;99201.69;4957316;28;20079;-78
2022/05/28 07:07:43;;;;;;;6.03;2.22;;;;;;;23.40;39.03;99193.63;4973538;28;20547;-78
2022/05/28 07:10:10;;;;;;;5.22;1.75;;;;;;;21.88;40.68;99213.84;4989965;28;20468;-78
2022/05/28 07:12:35;;;;;;;4.30;2.08;;;;;;;20.14;43.21;99202.44;4992936;28;20034;-77
2022/05/28 07:15:01;;;;;;;4.55;2.00;;;;;;;21.08;43.85;99207.63;4992686;28;20037;-78
2022/05/28 07:17:26;;;;;;;4.45;2.08;;;;;;;22.39;40.04;99211.38;4992880;28;20119;-78
2022/05/28 07:19:52;;;;;;;4.88;1.92;;;;;;;22.70;37.41;99197.59;4992990;28;20448;-78
2022/05/28 07:22:17;;;;;;;6.05;2.28;;;;;;;20.83;39.74;99203.88;5003139;28;20119;-78
2022/05/28 07:24:43;;;;;;;4.60;1.85;;;;;;;19.57;42.57;99196.25;5033316;28;20021;-78
2022/05/28 07:27:11;;;;;;;6.32;2.13;;;;;;;19.05;43.21;99210.66;5034818;28;20071;-78
2022/05/28 07:29:37;;;;;;;3.15;1.70;;;;;;;18.20;44.47;99191.59;5034650;28;20026;-78
2022/05/28 07:32:03;;;;;;;6.15;2.15;;;;;;;17.50;46.71;99200.13;5034266;28;20032;-78
2022/05/28 07:34:28;;;;;;;4.38;1.90;;;;;;;16.57;49.34;99178.69;5034307;28;20025;-78
2022/05/28 07:36:54;;;;;;;5.78;2.20;;;;;;;16.28;50.92;99171.28;5034278;28;20026;-78
2022/05/28 07:39:19;;;;;;;5.05;2.17;;;;;;;16.91;51.14;99182.13;5034096;28;20124;-78
2022/05/28 07:41:44;;;;;;;4.72;1.92;;;;;;;16.94;50.51;99166.94;5033037;28;20265;-78
2022/05/28 07:44:10;;;;;;;3.75;1.73;;;;;;;16.55;51.23;99167.44;5032946;28;20128;-78
2022/05/28 07:46:35;;;;;;;4.72;1.92;;;;;;;17.68;50.62;99164.34;5033891;28;20108;-79
2022/05/28 07:49:03;;;;;;;4.57;1.83;;;;;;;22.50;41.90;99157.19;5015971;28;20390;-78
2022/05/28 07:51:29;;;;;;;5.57;1.50;;;;;;;27.46;32.71;99157.22;5033929;28;20029;-78
2022/05/28 07:53:55;;;;;;;3.80;1.40;;;;;;;29.93;26.57;99158.09;5034344;28;20036;-79
2022/05/28 07:56:20;;;;;;;3.97;2.00;;;;;;;31.26;24.08;99171.88;5033858;28;20116;-79
2022/05/28 07:58:46;;;;;;;4.50;1.95;;;;;;;27.83;26.75;99158.78;5033777;28;20163;-79
2022/05/28 08:01:19;;;;;;;2.15;1.30;;;;;;;24.39;30.81;99170.47;5033656;28;20036;-78
2022/05/28 08:03:45;;;;;;;4.30;1.95;;;;;;;22.24;33.87;99170.50;5033863;28;20043;-79
2022/05/28 08:06:10;;;;;;;4.50;1.63;;;;;;;22.12;35.90;99164.59;5033170;28;20378;-79
2022/05/28 08:08:35;;;;;;;3.10;1.60;;;;;;;23.72;32.80;99165.41;5033845;28;20029;-79
2022/05/28 08:11:01;;;;;;;2.45;1.27;;;;;;;22.22;34.06;99172.50;5032426;28;20554;-78
2022/05/28 08:13:26;;;;;;;3.15;1.50;;;;;;;20.61;36.92;99193.69;5033344;28;20027;-79
2022/05/28 08:15:54;;;;;;;3.97;1.88;;;;;;;19.34;39.15;99168.44;5033419;28;20036;-79
2022/05/28 08:18:23;;;;;;;8.80;2.25;;;;;;;18.72;41.29;99177.53;5033180;28;20025;-78
2022/05/28 08:23:33;;;;;;;6.32;1.90;;;;;;;18.44;43.78;99151.72;5033733;28;20067;-78
2022/05/28 08:25:59;;;;;;;4.30;1.85;;;;;;;18.26;44.24;99161.22;5033558;28;20045;-78
2022/05/28 08:28:25;;;;;;;3.20;1.60;;;;;;;17.86;44.55;99183.06;5033050;28;20028;-79
2022/05/28 08:30:50;;;;;;;5.88;2.08;;;;;;;17.70;45.18;99174.75;5033315;28;20463;-78
2022/05/28 08:33:17;;;;;;;7.13;1.80;;;;;;;17.29;46.09;99176.38;5032716;28;20060;-78
2022/05/28 08:35:44;;;;;;;4.90;1.95;;;;;;;16.96;46.73;99174.69;5033303;28;20039;-78
2022/05/28 08:38:13;;;;;;;2.85;1.30;;;;;;;16.77;47.24;99177.97;5015400;28;20402;-78
2022/05/28 08:40:49;;;;;;;4.40;2.10;;;;;;;16.64;46.62;99156.19;5031924;28;20056;-78
2022/05/28 08:43:17;;;;;;;4.75;1.83;;;;;;;16.66;47.10;99168.25;5032802;28;20101;-78
2022/05/28 08:45:46;;;;;;;2.63;1.67;;;;;;;16.79;47.28;99160.25;5032683;28;20498;-78
2022/05/28 08:48:16;;;;;;;2.78;1.67;;;;;;;17.04;47.10;99163.56;5032759;28;20360;-78
2022/05/28 08:50:51;;;;;;;4.97;1.70;;;;;;;17.41;46.95;99174.53;5015303;28;20087;-79
2022/05/28 08:53:22;;;;;;;3.67;1.52;;;;;;;17.40;46.27;99170.22;5032716;28;20025;-79
2022/05/28 08:55:50;;;;;;;4.30;1.85;;;;;;;17.28;46.06;99169.47;5032607;28;20445;-79
2022/05/28 08:58:21;;;;;;;5.63;1.98;;;;;;;17.22;46.15;99162.03;5031133;28;20561;-79
2022/05/28 09:00:52;;;;;;;3.95;1.65;;;;;;;17.18;47.18;99171.97;5032807;28;20061;-78
2022/05/28 09:03:28;;;;;;;3.92;1.75;;;;;;;17.20;47.57;99170.06;5032860;28;20108;-78
2022/05/28 09:06:07;;;;;;;7.35;1.98;;;;;;;17.43;47.49;99169.97;5032607;28;20033;-78
2022/05/28 09:08:42;;;;;;;2.20;1.35;;;;;;;17.57;46.95;99159.16;5032735;28;20115;-78
2022/05/28 09:11:18;;;;;;;5.32;1.83;;;;;;;17.21;47.00;99192.78;5032369;28;20025;-78
2022/05/28 09:13:46;;;;;;;2.28;1.58;;;;;;;16.57;47.17;99182.13;5014852;28;20051;-78
2022/05/28 09:16:26;;;;;;;4.88;1.50;;;;;;;15.93;49.05;99206.34;5032281;28;20382;-78
2022/05/28 09:18:54;;;;;;;3.53;1.40;;;;;;;15.63;50.67;99187.59;5032402;28;20021;-78
2022/05/28 09:21:21;;;;;;;4.45;1.55;;;;;;;15.84;50.83;99190.44;5031963;28;20036;-78
2022/05/28 09:24:01;;;;;;;3.33;1.65;;;;;;;15.81;50.49;99206.44;5032499;28;20462;-78
2022/05/28 09:26:32;;;;;;;4.57;1.80;;;;;;;15.41;53.72;99191.81;5031977;28;20471;-78
2022/05/28 09:29:24;;;;;;;3.88;2.00;;;;;;;14.96;58.53;99217.00;5032126;28;20371;-78
2022/05/28 09:32:45;;;;;;;6.25;2.00;;;;;;;14.72;63.70;99217.78;5032677;28;20038;-78
2022/05/28 09:35:28;;;;;;;2.33;1.30;;;;;;;14.80;65.11;99219.03;4913137;29;20031;-79
2022/05/28 09:38:11;;;;;;;5.32;1.73;;;;;;;14.84;65.95;99231.00;4913405;29;20268;-78
2022/05/28 09:40:50;;;;;;;4.82;1.67;;;;;;;14.35;67.87;99242.22;4913450;29;20115;-77
2022/05/28 09:43:44;;;;;;;5.82;1.92;;;;;;;13.86;73.54;99259.47;4913215;29;20517;-78
2022/05/28 09:46:33;;;;;;;3.45;1.65;;;;;;;13.42;78.22;99259.75;4912853;29;20067;-76
2022/05/28 09:49:24;;;;;;;9.52;2.03;;;;;;;13.33;81.79;99240.25;4913393;29;20553;-76
2022/05/28 09:52:07;;;;;;;3.90;2.00;;;;;;;13.40;83.78;99248.53;4913450;29;20116;-76
2022/05/28 09:54:33;;;;;;;9.25;2.28;;;;;;;13.37;86.66;99236.50;4913075;29;20043;-76
2022/05/28 09:57:26;;;;;;;5.75;2.40;;;;;;;13.33;88.79;99228.97;4913258;29;20036;-76
2022/05/28 10:00:03;;;;;;;4.00;1.70;;;;;;;13.36;91.51;99220.94;4913279;29;20028;-77
2022/05/28 10:02:33;;;;;;;3.08;1.58;;;;;;;13.49;90.36;99227.03;4913098;29;20636;-76
2022/05/28 10:05:16;;;;;;;4.55;1.70;;;;;;;13.50;88.44;99230.50;4913135;29;20051;-77
2022/05/28 10:07:50;;;;;;;5.72;1.65;;;;;;;13.62;87.56;99227.06;4915282;29;20040;-76
2022/05/28 10:10:30;;;;;;;4.70;1.90;;;;;;;13.69;84.54;99217.84;4947641;28;20117;-76
2022/05/28 10:13:12;;;;;;;4.13;1.97;;;;;;;14.04;85.12;99222.53;5018721;28;20034;-76
2022/05/28 10:15:43;;;;;;;5.43;2.05;;;;;;;14.11;81.53;99221.16;5018638;28;20034;-76
2022/05/28 10:18:15;;;;;;;5.15;2.10;;;;;;;14.26;81.03;99209.66;5018539;28;20426;-76
2022/05/28 10:20:41;;;;;;;5.40;2.33;;;;;;;14.43;79.91;99213.72;5018547;28;20100;-77
2022/05/28 10:23:24;;;;;;;4.38;2.00;;;;;;;14.51;79.64;99224.53;5018434;28;20476;-77
2022/05/28 10:25:50;;;;;;;4.57;1.80;;;;;;;14.43;77.87;99222.41;5018321;28;20029;-76
2022/05/28 10:28:47;;;;;;;2.47;1.80;;;;;;;14.58;78.70;99233.66;5018281;28;20022;-76
2022/05/28 10:31:22;;;;;;;4.43;1.70;;;;;;;14.64;77.06;99225.34;4957242;28;20043;-76
2022/05/28 10:33:48;;;;;;;2.40;1.50;;;;;;;14.66;76.36;99217.38;4957465;29;20027;-76
2022/05/28 10:36:17;;;;;;;4.88;1.50;;;;;;;14.87;75.74;99212.41;4956973;29;20039;-76
2022/05/28 10:38:43;;;;;;;3.72;1.85;;;;;;;15.14;73.93;99210.44;4957326;28;20067;-76
2022/05/28 10:41:21;;;;;;;3.92;2.00;;;;;;;15.23;72.80;99219.41;4957338;28;20039;-76
2022/05/28 10:43:49;;;;;;;2.70;1.50;;;;;;;15.10;72.11;99208.13;4957354;29;20027;-76
2022/05/28 10:46:21;;;;;;;2.85;1.40;;;;;;;14.94;70.97;99211.03;4940807;29;20166;-76
2022/05/28 10:49:14;;;;;;;2.47;1.50;;;;;;;15.04;71.30;99211.19;4957136;28;20077;-76
2022/05/28 10:52:07;;;;;;;2.40;1.45;;;;;;;15.01;67.27;99206.19;4957350;29;20035;-76
2022/05/28 10:54:57;;;;;;;3.95;1.58;;;;;;;15.13;67.49;99194.81;4957031;28;20174;-76
2022/05/28 10:57:26;;;;;;;4.40;2.00;;;;;;;15.52;68.34;99206.78;4957013;28;20493;-76
2022/05/28 11:00:04;;;;;;;4.57;2.08;;;;;;;15.84;65.43;99195.69;4957296;29;20538;-76
2022/05/28 11:02:35;;;;;;;3.10;1.90;;;;;;;16.07;62.21;99200.03;4957054;29;20035;-76
2022/05/28 11:05:22;;;;;;;2.33;1.70;;;;;;;16.25;61.32;99205.66;4957331;28;20031;-76
2022/05/28 11:08:20;;;;;;;6.38;2.67;;;;;;;16.39;60.78;99204.59;4992777;28;20046;-77
2022/05/28 11:10:55;;;;;;;2.85;1.70;;;;;;;16.32;60.17;99190.28;5018084;28;20107;-77
2022/05/28 11:13:26;;;;;;;1.80;1.20;;;;;;;16.25;58.40;99199.56;5017734;28;20088;-76
2022/05/28 11:15:51;;;;;;;1.85;1.30;;;;;;;16.08;58.73;99212.22;5017770;28;20406;-76
2022/05/28 11:18:34;;;;;;;3.88;1.77;;;;;;;15.81;61.19;99237.94;5017988;28;20030;-77
2022/05/28 11:21:15;;;;;;;4.88;2.00;;;;;;;15.41;65.53;99254.81;5014886;28;20372;-77
2022/05/28 11:23:54;;;;;;;3.30;1.80;;;;;;;15.06;67.49;99240.78;5014768;28;20049;-76
2022/05/28 11:26:56;;;;;;;3.05;1.65;;;;;;;14.82;69.33;99245.97;5014440;28;20045;-76
2022/05/28 11:29:31;;;;;;;7.43;2.10;;;;;;;15.00;71.08;99231.56;5014526;28;20042;-76
2022/05/28 11:32:07;;;;;;;4.65;2.47;;;;;;;15.08;71.47;99207.41;5014633;28;20060;-76
2022/05/28 11:34:40;;;;;;;5.60;2.72;;;;;;;15.30;71.18;99219.81;5014449;28;20040;-76
2022/05/28 11:37:15;;;;;;;3.42;1.80;;;;;;;15.25;71.38;99219.28;5014432;28;20112;-76
2022/05/28 11:39:48;;;;;;;6.07;3.47;;;;;;;15.11;70.39;99218.50;5014306;28;20543;-76
2022/05/28 11:42:41;;;;;;;4.05;2.58;;;;;;;14.98;71.57;99238.69;5014401;28;20022;-76
2022/05/28 11:45:15;;;;;;;4.75;2.13;;;;;;;14.87;71.71;99228.97;5014028;28;20364;-76
2022/05/28 11:47:43;;;;;;;3.33;2.03;;;;;;;14.83;71.04;99239.78;5014351;28;20033;-76
2022/05/28 11:53:12;;;;;;;2.28;1.67;;;;;;;14.81;72.36;99221.53;5014438;28;20048;-76